createdAt,value
2023-04-15T00:01:20.867Z,8.67
2023-04-15T00:03:49.231Z,6.80
2023-04-15T00:06:17.590Z,10.37
2023-04-15T00:08:45.768Z,10.27
2023-04-15T00:11:14.096Z,12.43
2023-04-15T00:13:42.754Z,11.50
2023-04-15T00:16:12.417Z,7.27
2023-04-15T00:18:40.554Z,9.07
2023-04-15T00:21:09.093Z,7.40
2023-04-15T00:23:37.502Z,23.00
2023-04-15T00:26:05.760Z,8.67
2023-04-15T00:28:33.891Z,12.73
2023-04-15T00:31:02.420Z,12.03
2023-04-15T00:33:31.921Z,9.27
2023-04-15T00:36:00.095Z,8.10
2023-04-15T00:38:28.740Z,9.47
2023-04-15T00:40:57.399Z,6.13
2023-04-15T00:43:29.727Z,8.93
2023-04-15T00:46:00.048Z,7.87
2023-04-15T00:48:29.363Z,8.70
2023-04-15T00:50:59.037Z,9.13
2023-04-15T00:53:27.197Z,12.77
2023-04-15T00:55:55.781Z,7.13
2023-04-15T00:58:24.461Z,10.20
2023-04-15T01:00:54.429Z,13.60
2023-04-15T01:03:22.781Z,12.57
2023-04-15T01:05:52.990Z,6.40
2023-04-15T01:08:22.549Z,9.90
2023-04-15T01:10:50.775Z,8.90
2023-04-15T01:13:19.253Z,8.03
2023-04-15T01:15:47.398Z,7.80
2023-04-15T01:18:15.703Z,10.03
2023-04-15T01:20:43.901Z,17.40
2023-04-15T01:23:12.150Z,8.73
2023-04-15T01:25:44.213Z,11.30
2023-04-15T01:28:15.375Z,9.20
2023-04-15T01:30:43.562Z,9.20
2023-04-15T01:33:12.283Z,9.13
2023-04-15T01:35:40.450Z,15.83
2023-04-15T01:38:10.161Z,10.67
2023-04-15T01:40:39.548Z,9.60
2023-04-15T01:43:09.402Z,12.97
2023-04-15T01:45:37.629Z,10.90
2023-04-15T01:48:08.446Z,8.47
2023-04-15T01:50:39.200Z,9.33
2023-04-15T01:53:09.860Z,11.47
2023-04-15T01:55:38.251Z,9.37
2023-04-15T01:58:06.885Z,11.50
2023-04-15T02:00:36.888Z,9.30
2023-04-15T02:03:05.297Z,9.90
2023-04-15T02:05:33.868Z,14.13
2023-04-15T02:08:02.166Z,10.67
2023-04-15T02:10:31.193Z,9.57
2023-04-15T02:13:00.150Z,11.37
2023-04-15T02:15:30.570Z,12.23
2023-04-15T02:18:00.979Z,6.43
2023-04-15T02:20:30.733Z,12.23
2023-04-15T02:22:59.614Z,16.30
2023-04-15T02:25:30.770Z,8.87
2023-04-15T02:27:59.286Z,10.23
2023-04-15T02:30:27.466Z,12.53
2023-04-15T02:32:56.132Z,16.53
2023-04-15T02:35:27.970Z,14.13
2023-04-15T02:37:56.657Z,13.73
2023-04-15T02:40:25.019Z,13.00
2023-04-15T02:42:55.685Z,13.43
2023-04-15T02:45:26.490Z,23.00
2023-04-15T02:47:54.925Z,10.73
2023-04-15T02:50:28.422Z,12.20
2023-04-15T02:52:56.530Z,12.67
2023-04-15T02:55:24.995Z,11.50
2023-04-15T02:57:53.138Z,6.90
2023-04-15T03:04:33.938Z,9.20
2023-04-15T03:07:03.768Z,11.13
2023-04-15T03:09:33.067Z,10.63
2023-04-15T03:12:07.669Z,13.70
2023-04-15T03:14:37.891Z,12.37
2023-04-15T03:17:24.339Z,11.30
2023-04-15T03:19:52.861Z,7.03
2023-04-15T03:22:26.626Z,8.90
2023-04-15T03:24:56.280Z,14.73
2023-04-15T03:27:28.624Z,11.37
2023-04-15T03:30:01.034Z,10.70
2023-04-15T03:32:32.530Z,10.30
2023-04-15T03:35:03.073Z,8.53
2023-04-15T03:37:32.656Z,9.20
2023-04-15T03:40:06.181Z,9.60
2023-04-15T03:42:34.341Z,10.93
2023-04-15T03:45:02.459Z,9.00
2023-04-15T03:47:30.704Z,8.57
2023-04-15T03:50:01.647Z,12.60
2023-04-15T03:52:33.424Z,12.97
2023-04-15T03:55:01.699Z,16.63
2023-04-15T03:57:30.679Z,11.43
2023-04-15T04:00:01.354Z,16.40
2023-04-15T04:02:43.091Z,8.63
2023-04-15T04:05:15.882Z,9.93
2023-04-15T04:07:45.589Z,9.03
2023-04-15T04:10:13.738Z,11.97
2023-04-15T04:12:47.066Z,7.97
2023-04-15T04:15:22.950Z,9.97
2023-04-15T04:17:52.545Z,10.37
2023-04-15T04:20:21.267Z,9.63
2023-04-15T04:23:16.048Z,9.60
2023-04-15T04:25:44.254Z,9.20
2023-04-15T04:28:39.572Z,10.80
2023-04-15T04:31:08.489Z,7.90
2023-04-15T04:33:39.093Z,13.07
2023-04-15T04:36:09.764Z,8.57
2023-04-15T04:38:39.221Z,11.10
2023-04-15T04:41:07.356Z,13.97
2023-04-15T04:43:35.473Z,12.93
2023-04-15T04:46:03.691Z,17.13
2023-04-15T04:48:31.957Z,10.53
2023-04-15T04:51:02.515Z,10.53
2023-04-15T04:53:32.857Z,10.37
2023-04-15T04:56:02.387Z,13.40
2023-04-15T04:58:33.448Z,16.80
2023-04-15T05:01:03.087Z,12.47
2023-04-15T05:03:34.438Z,11.40
2023-04-15T05:06:06.178Z,8.90
2023-04-15T05:08:34.401Z,8.33
2023-04-15T05:11:07.349Z,9.77
2023-04-15T05:13:38.621Z,13.73
2023-04-15T05:16:07.590Z,9.67
2023-04-15T05:18:35.812Z,10.63
2023-04-15T05:21:04.264Z,10.93
2023-04-15T05:23:35.214Z,8.47
2023-04-15T05:26:03.493Z,13.03
2023-04-15T05:28:35.788Z,14.70
2023-04-15T05:31:04.175Z,9.27
2023-04-15T05:33:32.308Z,13.70
2023-04-15T05:36:00.453Z,13.70
2023-04-15T05:38:31.024Z,8.33
2023-04-15T05:40:59.201Z,9.10
2023-04-15T05:43:27.345Z,9.10
2023-04-15T05:45:56.980Z,10.53
2023-04-15T05:48:25.185Z,13.73
2023-04-15T05:50:53.328Z,10.20
2023-04-15T05:53:21.880Z,13.47
2023-04-15T05:55:50.079Z,15.63
2023-04-15T05:58:18.231Z,11.73
2023-04-15T06:00:46.473Z,8.00
2023-04-15T06:03:16.926Z,10.13
2023-04-15T06:05:45.617Z,8.67
2023-04-15T06:08:13.930Z,11.70
2023-04-15T06:10:42.152Z,10.03
2023-04-15T06:13:10.317Z,7.70
2023-04-15T06:15:38.453Z,6.97
2023-04-15T06:18:09.165Z,7.93
2023-04-15T06:20:38.644Z,14.37
2023-04-15T06:23:06.856Z,10.57
2023-04-15T06:25:35.059Z,9.13
2023-04-15T06:28:03.478Z,7.43
2023-04-15T06:30:31.664Z,11.20
2023-04-15T06:33:00.016Z,7.73
2023-04-15T06:35:28.671Z,10.87
2023-04-15T06:37:58.367Z,8.30
2023-04-15T06:40:26.860Z,12.43
2023-04-15T06:42:55.074Z,9.10
2023-04-15T06:45:23.227Z,7.73
2023-04-15T06:47:52.925Z,10.13
2023-04-15T06:50:24.098Z,9.13
2023-04-15T06:52:52.252Z,7.90
2023-04-15T06:55:22.345Z,7.77
2023-04-15T06:57:50.506Z,6.97
2023-04-15T07:00:19.287Z,10.87
2023-04-15T07:02:49.989Z,11.87
2023-04-15T07:05:20.743Z,9.57
2023-04-15T07:07:54.090Z,7.90
2023-04-15T07:10:26.802Z,11.33
2023-04-15T07:12:55.154Z,11.27
2023-04-15T07:15:25.669Z,7.07
2023-04-15T07:17:53.916Z,9.03
2023-04-15T07:20:22.048Z,5.10
2023-04-15T07:22:50.266Z,8.00
2023-04-15T07:25:19.071Z,9.87
2023-04-15T07:27:48.587Z,10.27
2023-04-15T07:30:16.959Z,5.70
2023-04-15T07:32:45.127Z,6.37
2023-04-15T07:35:13.514Z,7.77
2023-04-15T07:37:43.337Z,9.37
2023-04-15T07:40:12.541Z,7.80
2023-04-15T07:42:41.446Z,7.50
2023-04-15T07:45:13.944Z,9.33
2023-04-15T07:47:42.702Z,6.87
2023-04-15T07:50:12.387Z,5.17
2023-04-15T07:52:40.634Z,8.20
2023-04-15T07:55:10.087Z,5.03
2023-04-15T07:57:38.798Z,5.37
2023-04-15T08:00:08.312Z,6.17
2023-04-15T08:02:44.009Z,7.90
2023-04-15T08:05:12.337Z,6.60
2023-04-15T08:07:40.851Z,7.40
2023-04-15T08:10:09.661Z,7.03
2023-04-15T08:12:38.000Z,5.60
2023-04-15T08:15:09.631Z,6.63
2023-04-15T08:17:37.794Z,7.00
2023-04-15T08:20:08.569Z,7.33
2023-04-15T08:22:36.739Z,6.97
2023-04-15T08:25:05.273Z,4.90
2023-04-15T08:27:33.513Z,5.00
2023-04-15T08:30:04.608Z,4.47
2023-04-15T08:32:33.325Z,5.37
2023-04-15T08:35:01.877Z,6.60
2023-04-15T08:37:31.432Z,6.47
2023-04-15T08:39:59.607Z,6.77
2023-04-15T08:42:32.514Z,5.87
2023-04-15T08:45:01.732Z,5.43
2023-04-15T08:47:32.476Z,6.03
2023-04-15T08:50:01.154Z,4.87
2023-04-15T08:52:29.817Z,8.20
2023-04-15T08:55:01.411Z,6.07
2023-04-15T08:57:30.501Z,12.63
2023-04-15T08:59:59.070Z,5.27
2023-04-15T09:02:29.999Z,5.70
2023-04-15T09:04:58.230Z,6.57
2023-04-15T09:07:27.145Z,7.03
2023-04-15T09:09:55.292Z,5.17
2023-04-15T09:12:24.783Z,4.77
2023-04-15T09:14:53.023Z,5.97
2023-04-15T09:17:22.226Z,5.77
2023-04-15T09:19:50.561Z,5.70
2023-04-15T09:22:18.689Z,9.07
2023-04-15T09:24:47.603Z,6.90
2023-04-15T09:27:17.757Z,4.43
2023-04-15T09:29:51.610Z,3.67
2023-04-15T09:35:31.015Z,4.03
2023-04-15T09:38:05.178Z,4.40
2023-04-15T09:40:35.063Z,4.13
2023-04-15T09:43:03.814Z,7.17
2023-04-15T09:45:39.659Z,4.73
2023-04-15T09:48:19.126Z,4.97
2023-04-15T09:50:48.926Z,4.87
2023-04-15T09:53:21.586Z,7.07
2023-04-15T09:55:52.338Z,4.43
2023-04-15T09:58:21.383Z,5.13
2023-04-15T10:00:52.580Z,5.57
2023-04-15T10:03:22.790Z,9.63
2023-04-15T10:05:52.734Z,3.93
2023-04-15T10:08:26.349Z,3.50
2023-04-15T10:10:55.295Z,5.73
2023-04-15T10:13:26.252Z,4.80
2023-04-15T10:16:03.695Z,5.50
2023-04-15T10:18:36.968Z,6.80
2023-04-15T10:21:07.334Z,5.00
2023-04-15T10:23:36.096Z,4.63
2023-04-15T10:26:05.505Z,3.73
2023-04-15T10:28:33.717Z,3.77
2023-04-15T10:31:03.603Z,10.80
2023-04-15T10:33:32.865Z,6.17
2023-04-15T10:36:01.806Z,5.70
2023-04-15T10:38:37.423Z,4.60
2023-04-15T10:41:21.633Z,5.60
2023-04-15T10:43:53.021Z,4.70
2023-04-15T10:46:25.710Z,5.50
2023-04-15T10:48:55.304Z,4.60
2023-04-15T10:51:31.699Z,3.77
2023-04-15T10:54:01.254Z,5.37
2023-04-15T10:56:32.529Z,4.80
2023-04-15T10:59:02.039Z,4.67
2023-04-15T11:01:54.285Z,6.73
2023-04-15T11:04:54.447Z,4.83
2023-04-15T11:07:39.641Z,4.13
2023-04-15T11:10:55.914Z,4.87
2023-04-15T11:13:29.337Z,5.80
2023-04-15T11:16:03.801Z,5.37
2023-04-15T11:18:36.278Z,4.50
2023-04-15T11:21:09.559Z,5.70
2023-04-15T11:23:40.072Z,5.73
2023-04-15T11:26:11.981Z,6.33
2023-04-15T11:28:41.906Z,7.27
2023-04-15T11:31:12.174Z,3.43
2023-04-15T11:33:54.611Z,4.00
2023-04-15T11:36:29.773Z,5.00
2023-04-15T11:39:00.190Z,4.70
2023-04-15T11:41:30.677Z,4.17
2023-04-15T11:43:58.830Z,5.63
2023-04-15T11:46:34.152Z,3.67
2023-04-15T11:49:04.863Z,4.93
2023-04-15T11:51:35.099Z,5.57
2023-04-15T11:54:03.795Z,4.50
2023-04-15T11:56:34.578Z,3.77
2023-04-15T11:59:03.085Z,4.90
2023-04-15T12:01:35.173Z,4.27
2023-04-15T12:04:14.487Z,4.07
2023-04-15T12:06:45.269Z,4.77
2023-04-15T12:09:17.334Z,5.50
2023-04-15T12:11:49.527Z,6.30
2023-04-15T12:14:22.897Z,3.20
2023-04-15T12:16:54.085Z,4.57
2023-04-15T12:19:27.468Z,5.27
2023-04-15T12:22:01.521Z,3.90
2023-04-15T12:24:31.994Z,4.57
2023-04-15T12:27:04.073Z,3.10
2023-04-15T12:29:32.673Z,3.73
2023-04-15T12:32:07.650Z,4.70
2023-04-15T12:34:39.465Z,4.33
2023-04-15T12:37:09.535Z,6.60
2023-04-15T12:39:39.426Z,4.23
2023-04-15T12:42:08.513Z,3.40
2023-04-15T12:44:37.411Z,12.60
2023-04-15T12:47:06.602Z,4.30
2023-04-15T12:49:34.963Z,4.73
2023-04-15T12:52:05.664Z,4.53
2023-04-15T12:54:54.091Z,3.77
2023-04-15T12:57:27.709Z,4.10
2023-04-15T13:00:09.858Z,5.90
2023-04-15T13:02:40.857Z,8.03
2023-04-15T13:08:33.488Z,4.50
2023-04-15T13:11:13.134Z,7.83
2023-04-15T13:13:41.465Z,3.57
2023-04-15T13:16:09.884Z,4.10
2023-04-15T13:18:38.030Z,4.97
2023-04-15T13:21:07.580Z,4.73
2023-04-15T13:23:37.161Z,8.70
2023-04-15T13:26:05.670Z,5.50
2023-04-15T13:28:33.863Z,4.33
2023-04-15T13:31:02.060Z,7.27
2023-04-15T13:33:30.405Z,4.53
2023-04-15T13:35:58.907Z,3.63
2023-04-15T13:38:27.125Z,4.37
2023-04-15T13:40:56.785Z,5.37
2023-04-15T13:43:51.395Z,6.30
2023-04-15T13:46:26.934Z,4.77
2023-04-15T13:48:55.155Z,3.10
2023-04-15T13:51:23.388Z,5.03
2023-04-15T13:53:51.659Z,3.17
2023-04-15T13:56:21.635Z,3.53
2023-04-15T13:58:49.907Z,3.30
2023-04-15T14:01:18.157Z,3.53
2023-04-15T14:03:48.729Z,3.20
2023-04-15T14:06:17.042Z,2.90
2023-04-15T14:08:45.292Z,3.27
2023-04-15T14:11:15.973Z,4.60
2023-04-15T14:13:45.516Z,3.10
2023-04-15T14:16:13.771Z,5.10
2023-04-15T14:18:42.011Z,7.63
2023-04-15T14:21:10.195Z,2.73
2023-04-15T14:23:38.305Z,4.87
2023-04-15T14:26:06.716Z,4.50
2023-04-15T14:28:38.567Z,3.87
2023-04-15T14:31:08.224Z,5.43
2023-04-15T14:33:36.379Z,3.50
2023-04-15T14:36:07.161Z,4.73
2023-04-15T14:38:38.521Z,5.07
2023-04-15T14:41:07.189Z,3.53
2023-04-15T14:43:35.554Z,4.47
2023-04-15T14:46:03.862Z,4.50
2023-04-15T14:48:33.800Z,4.03
2023-04-15T14:51:04.755Z,3.90
2023-04-15T14:53:35.513Z,4.07
2023-04-15T14:56:03.751Z,4.90
2023-04-15T14:58:33.251Z,3.63
2023-04-15T15:01:04.819Z,3.40
2023-04-15T15:03:34.947Z,4.07
2023-04-15T15:06:03.606Z,4.10
2023-04-15T15:08:34.322Z,3.30
2023-04-15T15:11:09.099Z,4.40
2023-04-15T15:13:39.744Z,3.27
2023-04-15T15:16:11.901Z,3.97
2023-04-15T15:18:43.448Z,5.27
2023-04-15T15:21:14.046Z,6.53
2023-04-15T15:23:42.268Z,5.27
2023-04-15T15:26:10.592Z,2.53
2023-04-15T15:28:38.704Z,5.93
2023-04-15T15:31:06.898Z,3.93
2023-04-15T15:33:35.124Z,5.83
2023-04-15T15:36:05.118Z,3.40
2023-04-15T15:38:33.311Z,3.50
2023-04-15T15:41:01.438Z,3.37
2023-04-15T15:43:29.598Z,3.80
2023-04-15T15:45:57.795Z,3.50
2023-04-15T15:48:29.112Z,3.87
2023-04-15T15:50:57.289Z,3.70
2023-04-15T15:53:26.891Z,5.93
2023-04-15T15:55:57.629Z,2.40
2023-04-15T15:58:25.803Z,3.13
2023-04-15T16:00:54.122Z,3.67
2023-04-15T16:03:22.397Z,3.80
2023-04-15T16:05:50.740Z,4.30
2023-04-15T16:08:20.894Z,5.57
2023-04-15T16:10:50.517Z,3.20
2023-04-15T16:13:21.085Z,5.30
2023-04-15T16:15:50.086Z,3.07
2023-04-15T16:18:18.259Z,3.10
2023-04-15T16:20:46.714Z,3.37
2023-04-15T16:23:16.784Z,4.87
2023-04-15T16:25:45.874Z,3.33
2023-04-15T16:28:25.595Z,5.03
2023-04-15T16:30:55.018Z,4.53
2023-04-15T16:33:25.557Z,3.53
2023-04-15T16:35:53.708Z,5.00
2023-04-15T16:38:21.936Z,3.43
2023-04-15T16:40:51.569Z,4.37
2023-04-15T16:43:21.393Z,3.60
2023-04-15T16:45:51.454Z,3.37
2023-04-15T16:48:20.389Z,5.03
2023-04-15T16:50:48.840Z,4.27
2023-04-15T16:53:17.307Z,4.60
2023-04-15T16:55:45.449Z,3.50
2023-04-15T16:58:13.556Z,4.57
2023-04-15T17:00:43.006Z,5.40
2023-04-15T17:03:11.595Z,6.03
2023-04-15T17:05:39.950Z,3.87
2023-04-15T17:08:08.517Z,5.80
2023-04-15T17:10:37.706Z,3.60
2023-04-15T17:13:05.844Z,8.37
2023-04-15T17:15:34.054Z,4.50
2023-04-15T17:18:05.608Z,6.20
2023-04-15T17:20:35.556Z,4.10
2023-04-15T17:23:04.695Z,4.67
2023-04-15T17:25:32.860Z,3.97
2023-04-15T17:28:00.960Z,4.33
2023-04-15T17:30:29.070Z,4.33
2023-04-15T17:33:00.096Z,4.30
2023-04-15T17:35:29.815Z,6.03
2023-04-15T17:37:59.859Z,3.80
2023-04-15T17:40:28.020Z,6.53
2023-04-15T17:42:56.153Z,3.27
2023-04-15T17:45:24.377Z,3.23
2023-04-15T17:47:59.833Z,3.63
2023-04-15T17:50:29.434Z,4.70
2023-04-15T17:52:58.393Z,5.27
2023-04-15T17:55:26.613Z,3.80
2023-04-15T17:57:54.871Z,3.70
2023-04-15T18:00:22.998Z,4.30
2023-04-15T18:02:51.624Z,4.17
2023-04-15T18:05:20.871Z,3.67
2023-04-15T18:07:52.291Z,8.70
2023-04-15T18:10:21.639Z,3.40
2023-04-15T18:12:49.758Z,5.00
2023-04-15T18:15:20.569Z,8.00
2023-04-15T18:17:52.589Z,4.70
2023-04-15T18:20:21.162Z,5.13
2023-04-15T18:22:52.922Z,3.60
2023-04-15T18:25:23.921Z,8.33
2023-04-15T18:27:52.140Z,3.50
2023-04-15T18:30:23.535Z,3.23
2023-04-15T18:32:56.457Z,4.10
2023-04-15T18:35:24.663Z,3.47
2023-04-15T18:37:58.678Z,4.90
2023-04-15T18:40:28.077Z,5.27
2023-04-15T18:42:56.689Z,4.70
2023-04-15T18:45:30.362Z,29.33
2023-04-15T18:48:00.411Z,5.13
2023-04-15T18:50:37.582Z,4.87
2023-04-15T18:53:07.631Z,5.00
2023-04-15T18:55:36.599Z,3.60
2023-04-15T18:58:15.631Z,10.53
2023-04-15T19:00:44.361Z,4.00
2023-04-15T19:03:13.858Z,3.70
2023-04-15T19:05:42.227Z,8.40
2023-04-15T19:08:13.956Z,3.50
2023-04-15T19:10:42.266Z,7.50
2023-04-15T19:13:10.392Z,4.73
2023-04-15T19:15:40.845Z,5.63
2023-04-15T19:18:11.314Z,5.13
2023-04-15T19:20:40.273Z,4.47
2023-04-15T19:23:08.848Z,3.70
2023-04-15T19:25:38.437Z,4.77
2023-04-15T19:28:09.124Z,5.27
2023-04-15T19:30:39.598Z,5.10
2023-04-15T19:33:07.793Z,5.47
2023-04-15T19:35:38.357Z,4.43
2023-04-15T19:38:06.509Z,3.63
2023-04-15T19:40:34.766Z,5.97
2023-04-15T19:43:04.268Z,3.73
2023-04-15T19:45:38.805Z,3.93
2023-04-15T19:48:09.071Z,4.80
2023-04-15T19:50:37.306Z,3.80
2023-04-15T19:53:06.256Z,3.37
2023-04-15T19:55:34.423Z,5.43
2023-04-15T19:58:04.308Z,4.67
2023-04-15T20:00:32.576Z,5.33
2023-04-15T20:03:03.092Z,5.47
2023-04-15T20:05:31.556Z,4.27
2023-04-15T20:07:59.966Z,4.43
2023-04-15T20:10:28.287Z,4.27
2023-04-15T20:12:56.458Z,3.40
2023-04-15T20:15:26.243Z,3.20
2023-04-15T20:17:54.558Z,4.27
2023-04-15T20:20:26.327Z,3.37
2023-04-15T20:22:54.724Z,6.57
2023-04-15T20:25:22.866Z,3.73
2023-04-15T20:27:50.966Z,3.13
2023-04-15T20:30:19.163Z,4.10
2023-04-15T20:32:49.599Z,3.30
2023-04-15T20:35:42.541Z,3.27
2023-04-15T20:38:10.732Z,7.00
2023-04-15T20:40:41.674Z,4.90
2023-04-15T20:43:11.952Z,3.20
2023-04-15T20:46:17.846Z,9.63
2023-04-15T20:48:57.563Z,3.83
2023-04-15T20:51:27.476Z,4.57
2023-04-15T20:53:55.680Z,3.57
2023-04-15T20:56:23.813Z,6.60
2023-04-15T20:58:54.924Z,3.60
2023-04-15T21:01:25.877Z,3.70
2023-04-15T21:04:04.350Z,3.50
2023-04-15T21:06:36.701Z,3.20
2023-04-15T21:09:29.910Z,2.60
2023-04-15T21:12:01.716Z,10.60
2023-04-15T21:14:33.484Z,3.50
2023-04-15T21:17:09.274Z,3.33
2023-04-15T21:19:40.662Z,2.90
2023-04-15T21:22:13.364Z,3.53
2023-04-15T21:24:47.793Z,4.67
2023-04-15T21:27:15.952Z,4.30
2023-04-15T21:29:44.081Z,3.70
2023-04-15T21:32:12.368Z,3.93
2023-04-15T21:34:43.538Z,4.53
2023-04-15T21:37:13.580Z,4.77
2023-04-15T21:39:44.777Z,4.77
2023-04-15T21:42:12.903Z,6.07
2023-04-15T21:44:41.419Z,3.63
2023-04-15T21:47:09.903Z,5.50
2023-04-15T21:49:42.183Z,4.10
2023-04-15T21:52:14.005Z,6.20
2023-04-15T21:54:42.205Z,4.60
2023-04-15T21:57:10.372Z,5.50
2023-04-15T21:59:38.514Z,4.90
2023-04-15T22:02:06.798Z,6.30
2023-04-15T22:04:35.003Z,5.30
2023-04-15T22:07:06.683Z,3.17
2023-04-15T22:09:37.014Z,6.10
2023-04-15T22:12:08.282Z,5.10
2023-04-15T22:14:36.417Z,4.03
2023-04-15T22:17:04.604Z,3.70
2023-04-15T22:19:32.786Z,6.73
2023-04-15T22:22:04.821Z,3.43
2023-04-15T22:24:40.203Z,4.50
2023-04-15T22:27:09.231Z,3.00
2023-04-15T22:29:39.818Z,3.47
2023-04-15T22:32:08.394Z,3.30
2023-04-15T22:34:39.133Z,2.70
2023-04-15T22:37:14.186Z,5.83
2023-04-15T22:39:42.301Z,4.43
2023-04-15T22:42:13.860Z,5.20
2023-04-15T22:44:46.334Z,4.03
2023-04-15T22:47:17.221Z,5.83
2023-04-15T22:49:46.082Z,5.40
2023-04-15T22:52:29.285Z,5.50
2023-04-15T22:54:59.041Z,3.73
2023-04-15T22:57:27.930Z,4.50
2023-04-15T22:59:57.403Z,4.77
2023-04-15T23:02:25.936Z,4.23
2023-04-15T23:04:55.232Z,6.10
2023-04-15T23:07:24.852Z,3.67
2023-04-15T23:09:53.015Z,3.30
2023-04-15T23:12:22.966Z,3.90
2023-04-15T23:14:53.213Z,4.53
2023-04-15T23:17:21.443Z,5.03
2023-04-15T23:19:52.599Z,5.43
2023-04-15T23:22:29.627Z,4.10
2023-04-15T23:25:00.037Z,5.80
2023-04-15T23:27:28.175Z,3.13
2023-04-15T23:29:56.401Z,4.00
2023-04-15T23:32:27.641Z,3.70
2023-04-15T23:34:55.906Z,4.77
2023-04-15T23:37:28.369Z,6.23
2023-04-15T23:39:56.583Z,4.83
2023-04-15T23:42:24.789Z,2.83
2023-04-15T23:44:55.161Z,4.53
2023-04-15T23:47:23.877Z,4.40
2023-04-15T23:49:52.138Z,4.30
2023-04-15T23:52:20.307Z,4.37
2023-04-15T23:54:49.843Z,5.13
2023-04-15T23:57:18.776Z,3.67
2023-04-15T23:59:47.021Z,3.23
